createdAt,value
2018-09-13T00:01:19.245Z,8.17
2018-09-13T00:03:47.658Z,7.90
2018-09-13T00:06:16.090Z,7.70
2018-09-13T00:08:44.633Z,9.50
2018-09-13T00:11:13.105Z,9.37
2018-09-13T00:13:41.494Z,9.40
2018-09-13T00:16:09.937Z,6.90
2018-09-13T00:18:38.284Z,7.70
2018-09-13T00:21:06.679Z,7.17
2018-09-13T00:23:35.117Z,9.23
2018-09-13T00:26:03.548Z,7.70
2018-09-13T00:28:31.994Z,10.30
2018-09-13T00:31:00.430Z,7.20
2018-09-13T00:33:28.824Z,8.37
2018-09-13T00:35:57.194Z,7.30
2018-09-13T00:38:25.570Z,7.13
2018-09-13T00:40:53.925Z,6.83
2018-09-13T00:43:22.330Z,7.13
2018-09-13T00:45:50.613Z,8.03
2018-09-13T00:48:19.071Z,8.33
2018-09-13T00:50:47.634Z,9.07
2018-09-13T00:53:16.015Z,11.93
2018-09-13T00:55:44.408Z,9.50
2018-09-13T00:58:12.787Z,10.83
2018-09-13T01:00:41.161Z,9.23
2018-09-13T01:03:09.649Z,8.10
2018-09-13T01:05:38.043Z,8.17
2018-09-13T01:08:07.439Z,8.40
2018-09-13T01:10:35.877Z,9.47
2018-09-13T01:13:04.317Z,9.40
2018-09-13T01:15:32.746Z,8.53
2018-09-13T01:18:01.138Z,9.07
2018-09-13T01:20:29.600Z,7.90
2018-09-13T01:22:57.925Z,9.27
2018-09-13T01:25:26.357Z,8.30
2018-09-13T01:27:54.755Z,8.03
2018-09-13T01:30:23.591Z,8.63
2018-09-13T01:32:52.038Z,8.67
2018-09-13T01:35:20.527Z,8.37
2018-09-13T01:37:48.975Z,9.00
2018-09-13T01:40:17.403Z,10.20
2018-09-13T01:42:45.886Z,9.77
2018-09-13T01:45:14.326Z,8.53
2018-09-13T01:47:42.728Z,7.97
2018-09-13T01:50:11.128Z,9.37
2018-09-13T01:52:39.495Z,9.90
2018-09-13T01:55:07.883Z,7.40
2018-09-13T01:57:36.204Z,8.40
2018-09-13T02:00:04.672Z,10.60
2018-09-13T02:02:33.182Z,8.20
2018-09-13T02:05:01.630Z,7.50
2018-09-13T02:07:30.184Z,7.37
2018-09-13T02:09:58.507Z,7.60
2018-09-13T02:12:26.884Z,8.00
2018-09-13T02:14:55.299Z,8.23
2018-09-13T02:17:23.699Z,9.13
2018-09-13T02:19:52.111Z,8.93
2018-09-13T02:22:20.624Z,8.07
2018-09-13T02:24:49.170Z,9.13
2018-09-13T02:27:17.681Z,7.90
2018-09-13T02:29:46.192Z,7.37
2018-09-13T02:32:14.643Z,8.10
2018-09-13T02:34:43.094Z,8.53
2018-09-13T02:37:11.617Z,8.47
2018-09-13T02:39:40.084Z,7.50
2018-09-13T02:42:08.410Z,7.73
2018-09-13T02:44:36.792Z,10.70
2018-09-13T02:47:05.246Z,9.33
2018-09-13T02:49:33.679Z,10.50
2018-09-13T02:52:02.143Z,10.80
2018-09-13T02:54:30.529Z,10.17
2018-09-13T02:56:59.054Z,10.13
2018-09-13T02:59:27.440Z,11.87
2018-09-13T03:01:55.947Z,9.20
2018-09-13T03:04:24.463Z,8.90
2018-09-13T03:06:52.889Z,10.63
2018-09-13T03:09:21.288Z,9.73
2018-09-13T03:11:49.668Z,10.23
2018-09-13T03:14:18.079Z,9.63
2018-09-13T03:16:46.489Z,9.17
2018-09-13T03:19:14.947Z,10.43
2018-09-13T03:21:43.383Z,9.73
2018-09-13T03:24:11.863Z,9.37
2018-09-13T03:26:40.311Z,10.40
2018-09-13T03:29:08.732Z,9.60
2018-09-13T03:31:37.171Z,10.33
2018-09-13T03:34:05.629Z,11.17
2018-09-13T03:36:34.030Z,11.00
2018-09-13T03:39:02.590Z,9.73
2018-09-13T03:41:31.073Z,9.73
2018-09-13T03:43:59.440Z,11.47
2018-09-13T03:46:27.815Z,10.00
2018-09-13T03:48:56.255Z,10.40
2018-09-13T03:51:24.706Z,9.97
2018-09-13T03:53:53.049Z,9.07
2018-09-13T03:56:21.430Z,8.97
2018-09-13T03:58:49.819Z,10.17
2018-09-13T04:01:18.227Z,8.33
2018-09-13T04:03:46.628Z,8.60
2018-09-13T04:06:15.055Z,8.53
2018-09-13T04:08:43.596Z,9.60
2018-09-13T04:11:12.014Z,8.27
2018-09-13T04:13:40.504Z,8.00
2018-09-13T04:16:08.924Z,8.53
2018-09-13T04:18:37.499Z,7.60
2018-09-13T04:21:05.951Z,7.40
2018-09-13T04:23:34.392Z,8.50
2018-09-13T04:26:02.812Z,7.97
2018-09-13T04:28:31.232Z,7.97
2018-09-13T04:30:59.695Z,8.80
2018-09-13T04:33:28.092Z,8.87
2018-09-13T04:35:56.785Z,7.90
2018-09-13T04:38:25.169Z,9.97
2018-09-13T04:40:53.601Z,9.10
2018-09-13T04:43:22.104Z,8.80
2018-09-13T04:45:50.651Z,11.60
2018-09-13T04:48:19.032Z,13.23
2018-09-13T04:50:47.414Z,9.77
2018-09-13T04:53:15.839Z,8.90
2018-09-13T04:55:44.314Z,8.90
2018-09-13T04:58:12.790Z,8.73
2018-09-13T05:00:41.204Z,8.70
2018-09-13T05:03:09.554Z,8.77
2018-09-13T05:05:37.941Z,8.90
2018-09-13T05:08:06.398Z,8.50
2018-09-13T05:10:34.972Z,9.73
2018-09-13T05:13:03.478Z,8.70
2018-09-13T05:15:31.794Z,9.50
2018-09-13T05:18:00.155Z,8.73
2018-09-13T05:20:28.643Z,9.33
2018-09-13T05:22:57.055Z,8.40
2018-09-13T05:25:25.517Z,9.00
2018-09-13T05:27:53.951Z,9.53
2018-09-13T05:30:22.384Z,9.90
2018-09-13T05:32:50.818Z,26.40
2018-09-13T05:35:19.243Z,21.10
2018-09-13T05:37:47.629Z,16.20
2018-09-13T05:40:16.071Z,8.87
2018-09-13T05:42:44.452Z,9.60
2018-09-13T05:45:12.895Z,17.67
2018-09-13T05:47:41.367Z,14.50
2018-09-13T05:50:09.801Z,9.73
2018-09-13T05:52:38.220Z,9.87
2018-09-13T05:55:06.787Z,12.13
2018-09-13T05:57:35.308Z,11.57
2018-09-13T06:00:03.772Z,11.43
2018-09-13T06:02:32.604Z,13.20
2018-09-13T06:05:01.065Z,9.50
2018-09-13T06:07:29.448Z,9.27
2018-09-13T06:09:57.767Z,10.83
2018-09-13T06:12:26.308Z,10.27
2018-09-13T06:14:54.723Z,10.63
2018-09-13T06:17:23.163Z,10.77
2018-09-13T06:19:51.591Z,9.57
2018-09-13T06:22:19.890Z,11.03
2018-09-13T06:24:48.305Z,11.13
2018-09-13T06:27:16.814Z,10.33
2018-09-13T06:29:45.187Z,10.77
2018-09-13T06:32:13.603Z,11.17
2018-09-13T06:34:41.929Z,11.93
2018-09-13T06:37:10.357Z,15.67
2018-09-13T06:39:38.828Z,13.57
2018-09-13T06:42:07.331Z,13.53
2018-09-13T06:44:35.667Z,13.87
2018-09-13T06:47:04.048Z,18.70
2018-09-13T06:49:32.491Z,19.80
2018-09-13T06:52:00.891Z,19.17
2018-09-13T06:54:29.379Z,22.67
2018-09-13T06:56:57.896Z,22.87
2018-09-13T06:59:26.334Z,22.53
2018-09-13T07:01:54.783Z,30.07
2018-09-13T07:04:23.202Z,23.27
2018-09-13T07:06:51.645Z,39.73
2018-09-13T07:09:20.131Z,21.50
2018-09-13T07:11:48.539Z,23.23
2018-09-13T07:14:17.049Z,22.17
2018-09-13T07:16:45.451Z,22.17
2018-09-13T07:19:13.939Z,22.77
2018-09-13T07:21:43.403Z,21.97
2018-09-13T07:24:11.890Z,21.43
2018-09-13T07:26:40.376Z,21.30
2018-09-13T07:29:08.859Z,21.23
2018-09-13T07:31:37.376Z,19.57
2018-09-13T07:34:05.907Z,18.23
2018-09-13T07:36:34.438Z,19.63
2018-09-13T07:39:02.893Z,19.83
2018-09-13T07:41:31.385Z,18.33
2018-09-13T07:43:59.778Z,18.50
2018-09-13T07:46:28.261Z,18.33
2018-09-13T07:48:56.762Z,17.07
2018-09-13T07:51:25.181Z,18.57
2018-09-13T07:53:53.568Z,17.93
2018-09-13T07:56:22.033Z,17.13
2018-09-13T07:58:50.817Z,16.80
2018-09-13T08:01:19.561Z,16.43
2018-09-13T08:03:48.055Z,16.47
2018-09-13T08:06:16.490Z,14.47
2018-09-13T08:08:44.999Z,15.70
2018-09-13T08:11:13.452Z,17.87
2018-09-13T08:13:41.997Z,19.20
2018-09-13T08:16:10.495Z,16.00
2018-09-13T08:18:38.977Z,14.63
2018-09-13T08:21:07.505Z,16.90
2018-09-13T08:23:35.978Z,15.60
2018-09-13T08:26:04.389Z,14.27
2018-09-13T08:28:32.964Z,14.53
2018-09-13T08:31:01.422Z,14.47
2018-09-13T08:33:29.956Z,13.63
2018-09-13T08:35:58.367Z,15.63
2018-09-13T08:38:26.853Z,13.93
2018-09-13T08:40:55.292Z,17.43
2018-09-13T08:43:23.759Z,17.23
2018-09-13T08:45:52.405Z,13.90
2018-09-13T08:48:20.752Z,13.87
2018-09-13T08:50:49.288Z,14.37
2018-09-13T08:53:17.752Z,18.83
2018-09-13T08:55:46.164Z,15.73
2018-09-13T08:58:14.571Z,13.53
2018-09-13T09:00:43.009Z,12.40
2018-09-13T09:03:11.330Z,12.97
2018-09-13T09:05:46.491Z,14.83
2018-09-13T09:08:14.976Z,12.70
2018-09-13T09:10:43.544Z,13.27
2018-09-13T09:13:12.079Z,12.33
2018-09-13T09:15:40.563Z,12.27
2018-09-13T09:18:09.283Z,13.07
2018-09-13T09:20:37.700Z,12.83
2018-09-13T09:23:06.157Z,13.63
2018-09-13T09:25:34.559Z,12.37
2018-09-13T09:28:03.096Z,11.23
2018-09-13T09:30:31.496Z,28.27
2018-09-13T09:32:59.885Z,13.73
2018-09-13T09:35:28.352Z,11.97
2018-09-13T09:37:56.802Z,12.50
2018-09-13T09:40:25.299Z,11.27
2018-09-13T09:42:53.727Z,11.97
2018-09-13T09:45:22.159Z,12.33
2018-09-13T09:47:50.578Z,11.60
2018-09-13T09:50:18.993Z,11.53
2018-09-13T09:52:47.358Z,12.77
2018-09-13T09:55:19.981Z,12.23
2018-09-13T09:57:48.433Z,11.60
2018-09-13T10:00:16.898Z,11.60
2018-09-13T10:02:45.314Z,12.97
2018-09-13T10:05:13.732Z,12.23
2018-09-13T10:07:42.105Z,12.07
2018-09-13T10:10:10.574Z,12.13
2018-09-13T10:12:39.086Z,11.73
2018-09-13T10:15:13.059Z,13.20
2018-09-13T10:17:46.856Z,12.53
2018-09-13T10:20:20.723Z,13.27
2018-09-13T10:22:54.676Z,12.73
2018-09-13T10:26:28.047Z,11.80
2018-09-13T10:29:01.682Z,11.33
2018-09-13T10:31:35.401Z,12.00
2018-09-13T10:34:09.247Z,12.87
2018-09-13T10:36:43.173Z,13.10
2018-09-13T10:39:17.150Z,12.33
2018-09-13T10:41:50.964Z,12.30
2018-09-13T10:44:24.642Z,12.17
2018-09-13T10:46:58.301Z,10.43
2018-09-13T10:49:32.307Z,10.33
2018-09-13T10:52:06.136Z,10.33
2018-09-13T10:54:38.335Z,10.00
2018-09-13T10:57:13.160Z,10.40
2018-09-13T10:59:41.718Z,10.03
2018-09-13T11:02:11.781Z,9.47
2018-09-13T11:04:40.171Z,9.87
2018-09-13T11:07:09.872Z,9.70
2018-09-13T11:09:38.419Z,10.20
2018-09-13T11:12:07.486Z,10.07
2018-09-13T11:15:13.288Z,10.20
2018-09-13T11:17:41.711Z,9.33
2018-09-13T11:20:10.282Z,10.30
2018-09-13T11:22:38.635Z,9.07
2018-09-13T11:25:07.022Z,9.90
2018-09-13T11:27:36.309Z,13.00
2018-09-13T11:30:05.291Z,15.40
2018-09-13T11:32:34.389Z,9.07
2018-09-13T11:35:02.766Z,9.93
2018-09-13T11:37:34.786Z,8.87
2018-09-13T11:40:03.275Z,8.80
2018-09-13T11:42:31.660Z,8.23
2018-09-13T11:45:00.282Z,8.90
2018-09-13T11:47:29.624Z,9.67
2018-09-13T11:49:58.106Z,8.40
2018-09-13T11:52:26.528Z,8.57
2018-09-13T11:54:54.882Z,8.50
2018-09-13T11:57:23.313Z,8.33
2018-09-13T11:59:51.735Z,8.37
2018-09-13T12:02:20.331Z,8.33
2018-09-13T12:04:48.739Z,8.67
2018-09-13T12:07:17.153Z,9.70
2018-09-13T12:09:45.630Z,10.00
2018-09-13T12:12:14.186Z,8.60
2018-09-13T12:14:42.626Z,9.83
2018-09-13T12:17:11.083Z,8.43
2018-09-13T12:19:39.550Z,7.80
2018-09-13T12:22:07.866Z,8.17
2018-09-13T12:24:36.177Z,8.60
2018-09-13T12:27:04.611Z,8.47
2018-09-13T12:29:33.100Z,8.77
2018-09-13T12:32:01.446Z,8.73
2018-09-13T12:34:29.852Z,8.40
2018-09-13T12:36:58.247Z,8.20
2018-09-13T12:39:26.802Z,7.87
2018-09-13T12:41:55.287Z,9.20
2018-09-13T12:44:24.502Z,8.97
2018-09-13T12:46:52.868Z,8.57
2018-09-13T12:49:21.439Z,8.87
2018-09-13T12:51:49.893Z,7.90
2018-09-13T12:54:18.433Z,7.77
2018-09-13T12:56:46.968Z,7.90
2018-09-13T12:59:15.548Z,7.53
2018-09-13T13:01:44.101Z,7.87
2018-09-13T13:04:12.554Z,7.20
2018-09-13T13:06:41.046Z,8.90
2018-09-13T13:09:10.573Z,7.73
2018-09-13T13:11:38.923Z,7.27
2018-09-13T13:14:07.451Z,8.10
2018-09-13T13:16:36.214Z,8.33
2018-09-13T13:19:04.597Z,10.07
2018-09-13T13:21:33.018Z,8.73
2018-09-13T13:24:01.507Z,9.63
2018-09-13T13:26:29.955Z,8.17
2018-09-13T13:28:58.457Z,8.93
2018-09-13T13:31:26.871Z,8.63
2018-09-13T13:33:55.246Z,8.20
2018-09-13T13:36:23.737Z,8.90
2018-09-13T13:38:52.195Z,9.00
2018-09-13T13:41:20.712Z,8.97
2018-09-13T13:43:49.144Z,10.27
2018-09-13T13:46:17.525Z,9.70
2018-09-13T13:48:46.111Z,9.67
2018-09-13T13:51:14.590Z,8.50
2018-09-13T13:53:43.098Z,11.90
2018-09-13T13:56:11.459Z,10.57
2018-09-13T13:58:42.060Z,12.57
2018-09-13T14:01:10.489Z,10.23
2018-09-13T14:03:40.326Z,9.03
2018-09-13T14:06:08.691Z,10.03
2018-09-13T14:08:37.208Z,10.33
2018-09-13T14:11:05.990Z,9.60
2018-09-13T14:13:34.452Z,10.17
2018-09-13T14:16:02.869Z,10.43
2018-09-13T14:18:31.468Z,10.90
2018-09-13T14:20:59.905Z,12.90
2018-09-13T14:23:28.443Z,11.40
2018-09-13T14:25:57.031Z,12.97
2018-09-13T14:28:25.607Z,15.13
2018-09-13T14:30:54.112Z,13.77
2018-09-13T14:33:23.292Z,13.80
2018-09-13T14:35:51.679Z,12.57
2018-09-13T14:38:20.144Z,12.57
2018-09-13T14:40:50.764Z,19.97
2018-09-13T14:43:19.217Z,22.80
2018-09-13T14:45:47.641Z,21.97
2018-09-13T14:48:16.047Z,18.63
2018-09-13T14:50:44.660Z,14.57
2018-09-13T14:53:13.113Z,12.97
2018-09-13T14:55:41.661Z,14.83
2018-09-13T14:58:10.194Z,13.87
2018-09-13T15:00:38.585Z,15.00
2018-09-13T15:03:07.067Z,24.73
2018-09-13T15:05:35.450Z,15.73
2018-09-13T15:08:03.992Z,13.00
2018-09-13T15:10:32.355Z,14.10
2018-09-13T15:13:00.883Z,13.23
2018-09-13T15:15:29.275Z,14.77
2018-09-13T15:17:57.624Z,14.17
2018-09-13T15:20:26.055Z,14.00
2018-09-13T15:22:54.505Z,14.10
2018-09-13T15:25:22.933Z,13.87
2018-09-13T15:27:51.399Z,14.13
2018-09-13T15:30:19.884Z,14.43
2018-09-13T15:32:48.249Z,13.93
2018-09-13T15:35:16.639Z,13.30
2018-09-13T15:37:44.974Z,13.53
2018-09-13T15:40:13.424Z,13.73
2018-09-13T15:42:41.962Z,29.17
2018-09-13T15:45:10.416Z,22.70
2018-09-13T15:47:38.769Z,19.30
2018-09-13T15:50:07.171Z,18.67
2018-09-13T15:52:35.655Z,14.33
2018-09-13T15:55:04.101Z,13.83
2018-09-13T15:57:32.497Z,14.37
2018-09-13T16:00:00.984Z,15.07
2018-09-13T16:02:29.503Z,15.73
2018-09-13T16:04:57.902Z,14.17
2018-09-13T16:07:26.306Z,14.93
2018-09-13T16:09:54.703Z,14.57
2018-09-13T16:12:23.138Z,14.53
2018-09-13T16:14:51.563Z,17.40
2018-09-13T16:17:19.864Z,17.00
2018-09-13T16:19:48.309Z,18.73
2018-09-13T16:22:17.044Z,17.77
2018-09-13T16:24:45.415Z,16.17
2018-09-13T16:27:13.915Z,16.07
2018-09-13T16:29:42.426Z,16.10
2018-09-13T16:32:10.874Z,18.13
2018-09-13T16:34:39.327Z,20.70
2018-09-13T16:37:12.147Z,16.80
2018-09-13T16:39:46.438Z,16.20
2018-09-13T16:42:20.030Z,16.73
2018-09-13T16:44:52.450Z,15.40
2018-09-13T16:47:30.001Z,15.67
2018-09-13T16:50:00.662Z,13.80
2018-09-13T16:52:29.958Z,16.17
2018-09-13T16:54:58.363Z,18.73
2018-09-13T16:57:26.719Z,14.70
2018-09-13T16:59:55.307Z,21.90
2018-09-13T17:02:23.703Z,14.73
2018-09-13T17:04:52.063Z,14.77
2018-09-13T17:07:20.460Z,14.80
2018-09-13T17:09:49.184Z,14.87
2018-09-13T17:12:17.562Z,14.67
2018-09-13T17:14:46.041Z,14.53
2018-09-13T17:17:14.571Z,15.53
2018-09-13T17:19:42.950Z,16.60
2018-09-13T17:22:11.389Z,14.83
2018-09-13T17:24:39.853Z,15.47
2018-09-13T17:27:08.241Z,14.50
2018-09-13T17:29:36.686Z,22.37
2018-09-13T17:32:05.110Z,14.33
2018-09-13T17:34:33.521Z,15.10
2018-09-13T17:37:01.917Z,15.70
2018-09-13T17:39:30.281Z,14.30
2018-09-13T17:41:58.775Z,16.27
2018-09-13T17:44:27.191Z,16.40
2018-09-13T17:46:55.566Z,15.23
2018-09-13T17:49:24.010Z,15.40
2018-09-13T17:51:52.448Z,15.30
2018-09-13T17:54:20.903Z,15.13
2018-09-13T17:56:49.292Z,14.57
2018-09-13T17:59:17.691Z,15.63
2018-09-13T18:01:46.090Z,14.50
2018-09-13T18:04:14.582Z,15.87
2018-09-13T18:06:42.962Z,17.13
2018-09-13T18:09:12.828Z,17.87
2018-09-13T18:11:41.347Z,15.77
2018-09-13T18:14:09.734Z,16.97
2018-09-13T18:16:38.211Z,22.53
2018-09-13T18:19:06.588Z,15.93
2018-09-13T18:21:35.037Z,18.23
2018-09-13T18:24:03.556Z,23.97
2018-09-13T18:26:31.995Z,16.60
2018-09-13T18:29:00.291Z,21.23
2018-09-13T18:31:28.738Z,16.60
2018-09-13T18:33:57.099Z,16.87
2018-09-13T18:36:25.467Z,18.93
2018-09-13T18:38:54.887Z,16.23
2018-09-13T18:41:23.345Z,17.77
2018-09-13T18:43:51.790Z,18.43
2018-09-13T18:46:20.237Z,18.70
2018-09-13T18:48:48.606Z,21.30
2018-09-13T18:51:17.056Z,17.07
2018-09-13T18:53:45.664Z,17.00
2018-09-13T18:56:14.183Z,18.23
2018-09-13T18:58:42.621Z,17.47
2018-09-13T19:01:11.068Z,17.83
2018-09-13T19:03:39.390Z,20.43
2018-09-13T19:06:07.990Z,22.07
2018-09-13T19:08:36.379Z,24.73
2018-09-13T19:11:04.821Z,24.40
2018-09-13T19:13:33.275Z,28.40
2018-09-13T19:16:01.935Z,23.00
2018-09-13T19:18:30.435Z,21.90
2018-09-13T19:20:59.491Z,20.67
2018-09-13T19:23:28.892Z,19.93
2018-09-13T19:25:57.339Z,27.20
2018-09-13T19:28:25.806Z,20.80
2018-09-13T19:30:54.236Z,31.17
2018-09-13T19:33:22.760Z,19.90
2018-09-13T19:35:51.186Z,19.63
2018-09-13T19:38:19.559Z,20.17
2018-09-13T19:40:47.919Z,24.27
2018-09-13T19:43:16.374Z,22.00
2018-09-13T19:45:44.896Z,24.67
2018-09-13T19:48:13.299Z,21.00
2018-09-13T19:50:41.821Z,20.67
2018-09-13T19:53:10.275Z,20.13
2018-09-13T19:55:38.727Z,23.93
2018-09-13T19:58:07.125Z,31.23
2018-09-13T20:00:35.499Z,20.73
2018-09-13T20:03:03.890Z,19.00
2018-09-13T20:05:32.271Z,20.90
2018-09-13T20:08:00.671Z,23.83
2018-09-13T20:10:29.100Z,19.33
2018-09-13T20:12:57.502Z,19.73
2018-09-13T20:15:25.903Z,25.87
2018-09-13T20:17:54.327Z,22.37
2018-09-13T20:20:23.684Z,23.07
2018-09-13T20:22:52.059Z,19.97
2018-09-13T20:25:20.501Z,20.87
2018-09-13T20:27:48.909Z,21.07
2018-09-13T20:30:17.367Z,21.07
2018-09-13T20:32:45.944Z,21.23
2018-09-13T20:35:14.329Z,20.20
2018-09-13T20:37:43.015Z,22.47
2018-09-13T20:40:11.421Z,22.43
2018-09-13T20:42:40.031Z,21.67
2018-09-13T20:45:08.421Z,21.57
2018-09-13T20:47:37.179Z,21.60
2018-09-13T20:50:05.793Z,22.60
2018-09-13T20:52:34.223Z,21.83
2018-09-13T20:55:02.585Z,20.77
2018-09-13T20:57:31.050Z,20.97
2018-09-13T20:59:59.438Z,21.90
2018-09-13T21:02:27.860Z,22.90
2018-09-13T21:04:56.426Z,23.73
2018-09-13T21:07:24.977Z,26.03
2018-09-13T21:09:53.711Z,26.50
2018-09-13T21:12:22.166Z,25.83
2018-09-13T21:14:50.574Z,26.37
2018-09-13T21:17:19.003Z,27.40
2018-09-13T21:19:47.496Z,27.47
2018-09-13T21:22:16.150Z,27.60
2018-09-13T21:24:44.574Z,28.40
2018-09-13T21:27:13.046Z,27.80
2018-09-13T21:29:41.533Z,27.47
2018-09-13T21:32:10.879Z,28.80
2018-09-13T21:34:39.244Z,27.47
2018-09-13T21:37:07.636Z,27.47
2018-09-13T21:39:36.104Z,29.10
2018-09-13T21:42:04.576Z,29.07
2018-09-13T21:44:33.125Z,29.30
2018-09-13T21:47:01.439Z,28.77
2018-09-13T21:49:29.913Z,29.00
2018-09-13T21:51:58.400Z,29.57
2018-09-13T21:54:26.793Z,28.57
2018-09-13T21:56:55.236Z,28.33
2018-09-13T21:59:23.662Z,26.97
2018-09-13T22:01:52.287Z,27.60
2018-09-13T22:04:20.811Z,27.17
2018-09-13T22:06:49.433Z,27.63
2018-09-13T22:09:17.827Z,26.00
2018-09-13T22:11:46.382Z,25.17
2018-09-13T22:14:14.895Z,28.27
2018-09-13T22:16:43.406Z,28.63
2018-09-13T22:19:11.819Z,28.27
2018-09-13T22:21:40.226Z,28.97
2018-09-13T22:24:08.620Z,28.17
2018-09-13T22:26:37.113Z,28.33
2018-09-13T22:29:06.017Z,29.57
2018-09-13T22:31:35.155Z,29.53
2018-09-13T22:34:06.640Z,28.50
2018-09-13T22:36:35.435Z,30.53
2018-09-13T22:39:05.819Z,29.87
2018-09-13T22:41:34.269Z,31.53
2018-09-13T22:44:02.853Z,30.80
2018-09-13T22:46:31.331Z,30.77
2018-09-13T22:48:59.867Z,33.03
2018-09-13T22:51:28.304Z,28.83
2018-09-13T22:53:56.851Z,29.40
2018-09-13T22:56:26.447Z,28.50
2018-09-13T22:58:55.627Z,29.40
2018-09-13T23:01:24.198Z,30.17
2018-09-13T23:03:52.760Z,30.90
2018-09-13T23:06:21.571Z,27.97
2018-09-13T23:08:50.118Z,27.63
2018-09-13T23:11:18.723Z,29.33
2018-09-13T23:13:47.303Z,28.60
2018-09-13T23:16:15.898Z,28.70
2018-09-13T23:18:44.423Z,28.93
2018-09-13T23:21:12.904Z,28.80
2018-09-13T23:23:41.450Z,26.53
2018-09-13T23:26:09.966Z,24.20
2018-09-13T23:28:38.411Z,27.97
2018-09-13T23:31:07.063Z,24.27
2018-09-13T23:33:35.530Z,28.20
2018-09-13T23:36:04.068Z,26.13
2018-09-13T23:38:32.969Z,24.87
2018-09-13T23:41:01.761Z,28.63
2018-09-13T23:43:30.255Z,25.97
2018-09-13T23:45:58.838Z,26.03
2018-09-13T23:48:27.398Z,27.60
2018-09-13T23:50:55.848Z,28.80
2018-09-13T23:53:25.654Z,24.77
2018-09-13T23:55:54.232Z,28.37
2018-09-13T23:58:22.825Z,29.63
